Nyk Olympus — 3EOS7 — position and weather

sailwx.info

Track history (hours):
 
Tides and Currents Weather Stations Pressure Air Temp Water Temp Dewpoint Dewpoint Depression Visibility Wind Speed Wind Dir Waves Ship Positions

Nyk Olympus

Last reported at 2017-Feb-21 19:31 UTC. Time now 2017-Feb-26 21:44 UTC.
Position N 02°05' E 102°07'.

Length 335 m; draft 11.9 m.

Type: Other ship. MMSI: 372478000.

Date/timePositionNaut miles runAvg speedWind from/ knotsBaromVisibWave heightAir tempDewpointWater temp
2017-Feb-21 19:31N 02°05' E 102°07'1817.8
2017-Feb-21 18:32N 01°56' E 102°22'1717.3
2017-Feb-21 17:33N 01°46' E 102°36'5919.7
2017-Feb-21 14:32N 01°14' E 103°26'1919.2
2017-Feb-21 13:33N 01°08' E 103°44'1111.2
2017-Feb-21 12:34N 01°15' E 103°53'0 0.3
2017-Feb-21 11:28N 01°14' E 103°53'0 0.1
2017-Feb-21 10:31N 01°14' E 103°53'0 0.1
2017-Feb-21 09:13N 01°15' E 103°53'0 0.1
2017-Feb-21 07:31N 01°15' E 103°53'0 0.1
2017-Feb-21 06:31N 01°15' E 103°53'0 0.1
2017-Feb-21 05:31N 01°15' E 103°53'0 0.1
2017-Feb-21 04:31N 01°15' E 103°53'0 0.1
2017-Feb-21 03:31N 01°15' E 103°53'0 0.1
2017-Feb-21 02:31N 01°14' E 103°53'0 0.0
2017-Feb-21 01:16N 01°14' E 103°53'0 0.1
2017-Feb-21 00:25N 01°14' E 103°53'0 0.1
2017-Feb-20 23:28N 01°14' E 103°53'0 0.3
2017-Feb-20 22:33N 01°14' E 103°53'3 2.5
2017-Feb-20 21:28N 01°16' E 103°50'0 0.0
2017-Feb-20 20:31N 01°16' E 103°50'0 0.0
2017-Feb-20 19:31N 01°16' E 103°50'0 0.0
2017-Feb-20 18:25N 01°16' E 103°50'0 0.0
2017-Feb-20 17:25N 01°16' E 103°50'0 0.0
2017-Feb-20 16:31N 01°16' E 103°50'0 0.0
2017-Feb-20 15:31N 01°16' E 103°50'0 0.0
2017-Feb-20 14:31N 01°16' E 103°50'0 0.0
2017-Feb-20 13:19N 01°16' E 103°50'0 0.0
2017-Feb-20 12:31N 01°16' E 103°50'0 0.0
2017-Feb-20 11:31N 01°16' E 103°50'0 0.0
2017-Feb-20 10:31N 01°16' E 103°50'0 0.0
2017-Feb-20 09:31N 01°16' E 103°50'0 0.0
2017-Feb-20 08:31N 01°16' E 103°50'0 0.0
2017-Feb-20 07:31N 01°16' E 103°50'0 0.1
2017-Feb-20 06:31N 01°16' E 103°51'0 0.1
2017-Feb-20 05:31N 01°16' E 103°50'0 0.0
2017-Feb-20 04:28N 01°16' E 103°50'0 0.0
2017-Feb-20 03:28N 01°16' E 103°50'0 0.0
2017-Feb-20 02:31N 01°16' E 103°50'0 0.0
2017-Feb-20 01:25N 01°16' E 103°50'0 0.0
2017-Feb-20 00:19N 01°16' E 103°50'0 0.0
2017-Feb-19 23:22N 01°16' E 103°50'1 1.6
2017-Feb-19 22:33N 01°15' E 103°51'5 5.3
2017-Feb-19 21:32N 01°15' E 103°57'1211.8
2017-Feb-19 20:33N 01°16' E 104°08'  
2017-Feb-13 10:34N 22°27' E 119°47'1413.9
2017-Feb-13 09:33N 22°30' E 120°02'3 2.7
2017-Feb-13 08:33N 22°32' E 120°04'1313.1
2017-Feb-13 07:33N 22°33' E 120°18'1 0.7
2017-Feb-13 06:21N 22°34' E 120°19'0 0.0
2017-Feb-13 05:33N 22°34' E 120°19'0 0.0
2017-Feb-13 03:33N 22°34' E 120°19'0 0.0
2017-Feb-13 02:24N 22°34' E 120°19'0 0.0
2017-Feb-13 01:33N 22°34' E 120°19'0 0.0
2017-Feb-13 00:27N 22°34' E 120°19'0 0.0
2017-Feb-12 23:33N 22°34' E 120°19'0 0.0
2017-Feb-12 22:33N 22°34' E 120°19'0 0.0
2017-Feb-12 19:27N 22°34' E 120°19'0 0.0
2017-Feb-12 18:33N 22°34' E 120°19'0 0.0
2017-Feb-12 17:27N 22°34' E 120°19'0 0.0
2017-Feb-12 16:27N 22°34' E 120°19'1 1.0
2017-Feb-12 15:33N 22°33' E 120°19'6 6.0
2017-Feb-12 14:33N 22°32' E 120°13'1212.1
2017-Feb-12 13:33N 22°28' E 120°01'1111.4
2017-Feb-12 12:33N 22°24' E 119°49'  
Track history (hours):
 
Tides and Currents Weather Stations Pressure Air Temp Water Temp Dewpoint Dewpoint Depression Visibility Wind Speed Wind Dir Waves Ship Positions

Nyk Olympus

Last reported at 2017-Feb-21 19:31 UTC. Time now 2017-Feb-26 21:44 UTC.
Position N 02°05' E 102°07'.

Length 335 m; draft 11.9 m.

Type: Other ship. MMSI: 372478000.

Date/timePositionNaut miles runAvg speedWind from/ knotsBaromVisibWave heightAir tempDewpointWater temp
2017-Feb-21 19:31N 02°05' E 102°07'1817.8
2017-Feb-21 18:32N 01°56' E 102°22'1717.3
2017-Feb-21 17:33N 01°46' E 102°36'5919.7
2017-Feb-21 14:32N 01°14' E 103°26'1919.2
2017-Feb-21 13:33N 01°08' E 103°44'1111.2
2017-Feb-21 12:34N 01°15' E 103°53'0 0.3
2017-Feb-21 11:28N 01°14' E 103°53'0 0.1
2017-Feb-21 10:31N 01°14' E 103°53'0 0.1
2017-Feb-21 09:13N 01°15' E 103°53'0 0.1
2017-Feb-21 07:31N 01°15' E 103°53'0 0.1
2017-Feb-21 06:31N 01°15' E 103°53'0 0.1
2017-Feb-21 05:31N 01°15' E 103°53'0 0.1
2017-Feb-21 04:31N 01°15' E 103°53'0 0.1
2017-Feb-21 03:31N 01°15' E 103°53'0 0.1
2017-Feb-21 02:31N 01°14' E 103°53'0 0.0
2017-Feb-21 01:16N 01°14' E 103°53'0 0.1
2017-Feb-21 00:25N 01°14' E 103°53'0 0.1
2017-Feb-20 23:28N 01°14' E 103°53'0 0.3
2017-Feb-20 22:33N 01°14' E 103°53'3 2.5
2017-Feb-20 21:28N 01°16' E 103°50'0 0.0
2017-Feb-20 20:31N 01°16' E 103°50'0 0.0
2017-Feb-20 19:31N 01°16' E 103°50'0 0.0
2017-Feb-20 18:25N 01°16' E 103°50'0 0.0
2017-Feb-20 17:25N 01°16' E 103°50'0 0.0
2017-Feb-20 16:31N 01°16' E 103°50'0 0.0
2017-Feb-20 15:31N 01°16' E 103°50'0 0.0
2017-Feb-20 14:31N 01°16' E 103°50'0 0.0
2017-Feb-20 13:19N 01°16' E 103°50'0 0.0
2017-Feb-20 12:31N 01°16' E 103°50'0 0.0
2017-Feb-20 11:31N 01°16' E 103°50'0 0.0
2017-Feb-20 10:31N 01°16' E 103°50'0 0.0
2017-Feb-20 09:31N 01°16' E 103°50'0 0.0
2017-Feb-20 08:31N 01°16' E 103°50'0 0.0
2017-Feb-20 07:31N 01°16' E 103°50'0 0.1
2017-Feb-20 06:31N 01°16' E 103°51'0 0.1
2017-Feb-20 05:31N 01°16' E 103°50'0 0.0
2017-Feb-20 04:28N 01°16' E 103°50'0 0.0
2017-Feb-20 03:28N 01°16' E 103°50'0 0.0
2017-Feb-20 02:31N 01°16' E 103°50'0 0.0
2017-Feb-20 01:25N 01°16' E 103°50'0 0.0
2017-Feb-20 00:19N 01°16' E 103°50'0 0.0
2017-Feb-19 23:22N 01°16' E 103°50'1 1.6
2017-Feb-19 22:33N 01°15' E 103°51'5 5.3
2017-Feb-19 21:32N 01°15' E 103°57'1211.8
2017-Feb-19 20:33N 01°16' E 104°08'  
2017-Feb-13 10:34N 22°27' E 119°47'1413.9
2017-Feb-13 09:33N 22°30' E 120°02'3 2.7
2017-Feb-13 08:33N 22°32' E 120°04'1313.1
2017-Feb-13 07:33N 22°33' E 120°18'1 0.7
2017-Feb-13 06:21N 22°34' E 120°19'0 0.0
2017-Feb-13 05:33N 22°34' E 120°19'0 0.0
2017-Feb-13 03:33N 22°34' E 120°19'0 0.0
2017-Feb-13 02:24N 22°34' E 120°19'0 0.0
2017-Feb-13 01:33N 22°34' E 120°19'0 0.0
2017-Feb-13 00:27N 22°34' E 120°19'0 0.0
2017-Feb-12 23:33N 22°34' E 120°19'0 0.0
2017-Feb-12 22:33N 22°34' E 120°19'0 0.0
2017-Feb-12 19:27N 22°34' E 120°19'0 0.0
2017-Feb-12 18:33N 22°34' E 120°19'0 0.0
2017-Feb-12 17:27N 22°34' E 120°19'0 0.0
2017-Feb-12 16:27N 22°34' E 120°19'1 1.0
2017-Feb-12 15:33N 22°33' E 120°19'6 6.0
2017-Feb-12 14:33N 22°32' E 120°13'1212.1
2017-Feb-12 13:33N 22°28' E 120°01'1111.4
2017-Feb-12 12:33N 22°24' E 119°49'  

Dump ship's entire track history